Time;durP1;ratioP1;P1;durP2;ratioP2;P2;SDS_P1;SDS_P2;PMS_P1;PMS_P2;Temp;Humidity;BMP_temperature;BMP_pressure;BME280_temperature;BME280_humidity;BME280_pressure;Samples;Min_cycle;Max_cycle;Signal;HPM_P1;HPM_P2
2021/07/23 00:02:20;;;;;;;9.18;6.13;;;;;;;17.50;63.23;101968.66;5058207;28;20052;-57
2021/07/23 00:04:47;;;;;;;8.50;5.93;;;;;;;17.53;63.47;101972.78;5075886;28;20045;-57
2021/07/23 00:07:15;;;;;;;12.10;6.13;;;;;;;17.55;62.97;101970.56;5075757;28;20136;-56
2021/07/23 00:09:43;;;;;;;10.25;6.00;;;;;;;17.41;63.71;101964.88;5075832;28;20403;-53
2021/07/23 00:12:11;;;;;;;12.30;6.15;;;;;;;17.37;63.78;101969.31;5075177;28;20036;-56
2021/07/23 00:14:39;;;;;;;8.88;5.63;;;;;;;17.36;63.83;101962.97;5075659;28;20038;-57
2021/07/23 00:17:06;;;;;;;9.13;5.35;;;;;;;17.19;64.32;101957.84;5075741;28;20036;-56
2021/07/23 00:19:33;;;;;;;9.63;6.05;;;;;;;17.20;64.26;101959.50;5075836;28;20041;-58
2021/07/23 00:22:01;;;;;;;10.88;6.32;;;;;;;17.25;64.16;101955.91;5075495;28;20040;-55
2021/07/23 00:24:30;;;;;;;11.02;5.40;;;;;;;17.33;63.93;101960.78;5057423;28;20041;-57
2021/07/23 00:27:03;;;;;;;9.27;5.50;;;;;;;17.28;64.15;101960.81;5075178;28;20701;-56
2021/07/23 00:29:30;;;;;;;10.05;5.57;;;;;;;17.36;63.88;101957.47;5075427;28;20046;-58
2021/07/23 00:31:58;;;;;;;10.30;6.00;;;;;;;17.37;63.95;101959.13;5075584;28;20041;-58
2021/07/23 00:34:26;;;;;;;11.52;5.78;;;;;;;17.39;63.46;101965.16;5074901;28;20385;-58
2021/07/23 00:36:53;;;;;;;12.15;5.40;;;;;;;17.24;64.19;101959.75;5057403;28;20396;-56
2021/07/23 00:39:22;;;;;;;9.93;5.60;;;;;;;17.21;64.12;101963.06;5057191;28;20376;-56
2021/07/23 00:41:49;;;;;;;9.57;5.25;;;;;;;17.23;64.31;101953.41;5075257;28;20036;-55
2021/07/23 00:44:17;;;;;;;9.18;5.43;;;;;;;17.32;63.92;101950.91;5074862;28;20033;-56
2021/07/23 00:46:46;;;;;;;9.25;4.85;;;;;;;17.36;63.58;101951.94;5075243;28;20122;-57
2021/07/23 00:49:14;;;;;;;8.95;5.15;;;;;;;17.41;63.63;101956.59;5057445;28;20053;-56
2021/07/23 00:51:42;;;;;;;9.02;5.45;;;;;;;17.34;63.51;101953.34;5075042;28;20048;-56
2021/07/23 00:54:12;;;;;;;9.70;5.47;;;;;;;17.28;63.62;101949.00;5057195;28;20115;-54
2021/07/23 00:56:40;;;;;;;10.82;6.05;;;;;;;17.14;64.10;101944.09;5057216;28;20099;-56
2021/07/23 00:59:08;;;;;;;7.43;4.90;;;;;;;17.16;64.63;101944.66;5057011;28;20039;-55
2021/07/23 01:01:37;;;;;;;7.93;5.05;;;;;;;17.12;64.46;101942.75;5057254;28;20052;-55
2021/07/23 01:04:05;;;;;;;10.32;5.68;;;;;;;17.09;64.75;101952.41;5056485;28;20040;-54
2021/07/23 01:06:35;;;;;;;9.45;5.72;;;;;;;17.08;64.54;101945.25;5074606;28;20520;-54
2021/07/23 01:09:08;;;;;;;7.95;5.15;;;;;;;17.18;64.61;101947.13;5056521;28;20036;-55
2021/07/23 01:11:37;;;;;;;8.57;5.78;;;;;;;17.29;63.97;101947.88;5040284;28;20094;-56
2021/07/23 01:14:17;;;;;;;9.30;5.68;;;;;;;17.26;63.80;101941.00;5056666;28;20437;-56
2021/07/23 01:16:45;;;;;;;8.95;5.68;;;;;;;17.27;63.89;101937.16;5056610;28;20080;-55
2021/07/23 01:19:15;;;;;;;8.40;5.57;;;;;;;17.27;63.89;101942.66;5074510;28;20032;-57
2021/07/23 01:21:47;;;;;;;10.85;5.80;;;;;;;17.27;63.93;101934.41;5056931;28;20098;-55
2021/07/23 01:24:15;;;;;;;10.43;5.85;;;;;;;17.25;63.98;101942.13;5039433;28;20427;-56
2021/07/23 01:26:52;;;;;;;8.15;5.50;;;;;;;17.20;63.98;101942.16;5039115;28;20053;-55
2021/07/23 01:29:42;;;;;;;11.27;5.90;;;;;;;17.15;63.97;101933.91;5059735;28;20055;-54
2021/07/23 01:32:11;;;;;;;11.68;5.95;;;;;;;17.11;63.99;101938.34;5056630;28;20060;-52
2021/07/23 01:34:39;;;;;;;10.52;6.10;;;;;;;16.94;64.57;101942.31;5073986;28;20577;-55
2021/07/23 01:37:07;;;;;;;8.27;5.50;;;;;;;16.85;64.87;101938.50;5055897;28;20426;-55
2021/07/23 01:39:36;;;;;;;10.27;6.15;;;;;;;16.81;65.22;101934.66;5073867;28;20047;-56
2021/07/23 01:42:05;;;;;;;11.07;6.20;;;;;;;16.78;65.61;101938.78;5039650;28;20139;-53
2021/07/23 01:44:36;;;;;;;9.82;6.13;;;;;;;16.75;65.51;101941.28;5055743;28;20044;-55
2021/07/23 01:47:04;;;;;;;8.65;6.00;;;;;;;16.78;65.16;101941.53;5042637;28;20052;-53
2021/07/23 01:49:33;;;;;;;11.32;6.15;;;;;;;16.85;65.05;101941.25;5056379;28;20045;-52
2021/07/23 01:52:02;;;;;;;10.70;5.82;;;;;;;16.95;64.74;101941.19;5055736;28;20499;-53
2021/07/23 01:54:41;;;;;;;10.52;6.38;;;;;;;16.94;64.76;101939.53;5056304;28;20083;-55
2021/07/23 01:57:10;;;;;;;8.75;6.18;;;;;;;16.93;64.58;101935.16;5073935;28;20044;-53
2021/07/23 01:59:38;;;;;;;10.25;6.05;;;;;;;16.97;64.65;101941.72;5055738;28;20495;-55
2021/07/23 02:02:06;;;;;;;10.50;6.45;;;;;;;16.94;64.76;101939.53;5073828;28;20036;-53
2021/07/23 02:04:41;;;;;;;10.75;5.82;;;;;;;16.84;64.79;101939.59;5056185;28;20140;-50
2021/07/23 02:07:08;;;;;;;10.05;6.13;;;;;;;16.74;65.36;101931.34;5072716;28;20052;-55
2021/07/23 02:09:37;;;;;;;9.55;5.68;;;;;;;16.71;65.20;101931.91;5055697;28;20422;-55
2021/07/23 02:12:05;;;;;;;8.35;5.43;;;;;;;16.66;65.71;101930.00;5073400;28;20132;-52
2021/07/23 02:14:55;;;;;;;12.40;6.28;;;;;;;16.69;65.36;101931.38;5072102;28;20048;-56
2021/07/23 02:17:25;;;;;;;8.80;6.10;;;;;;;16.75;65.04;101931.06;5055642;28;20052;-54
2021/07/23 02:19:53;;;;;;;12.35;5.90;;;;;;;16.73;65.25;101927.78;5055532;28;20076;-52
2021/07/23 02:22:23;;;;;;;9.70;5.88;;;;;;;16.73;65.14;101925.03;5054456;28;20044;-55
2021/07/23 02:24:52;;;;;;;9.70;6.20;;;;;;;16.72;65.09;101931.66;5073176;28;20044;-55
2021/07/23 02:27:21;;;;;;;9.13;6.00;;;;;;;16.68;65.54;101916.81;5072825;28;20088;-57
2021/07/23 02:29:56;;;;;;;10.47;6.20;;;;;;;16.71;65.21;101918.97;5055431;28;20056;-53
2021/07/23 02:32:27;;;;;;;8.30;5.82;;;;;;;16.77;65.46;101917.84;5055368;28;20306;-53
2021/07/23 02:34:55;;;;;;;11.35;6.22;;;;;;;16.80;64.70;101916.50;5054828;28;20044;-54
2021/07/23 02:37:24;;;;;;;9.68;6.13;;;;;;;16.77;65.20;101915.09;5055023;28;20495;-54
2021/07/23 02:39:53;;;;;;;11.10;7.05;;;;;;;16.65;65.34;101920.13;5054902;28;20036;-55
2021/07/23 02:42:20;;;;;;;10.60;6.15;;;;;;;16.60;65.57;101922.91;5073092;28;20048;-52
2021/07/23 02:44:48;;;;;;;10.98;6.00;;;;;;;16.61;65.70;101919.84;5072426;28;20442;-52
2021/07/23 02:47:15;;;;;;;11.85;6.15;;;;;;;16.66;65.34;101918.19;5072836;28;20040;-53
2021/07/23 02:49:43;;;;;;;11.45;6.18;;;;;;;16.58;65.37;101920.41;5072615;28;20102;-56
2021/07/23 02:52:12;;;;;;;10.77;5.95;;;;;;;16.37;65.83;101916.09;5054780;28;20047;-54
2021/07/23 02:54:44;;;;;;;10.88;6.63;;;;;;;16.25;66.33;101912.84;5054860;28;20036;-55
2021/07/23 02:57:14;;;;;;;8.35;5.43;;;;;;;16.16;67.23;101907.94;5072458;28;20044;-54
2021/07/23 02:59:46;;;;;;;8.80;5.68;;;;;;;16.23;67.02;101907.59;5054913;28;20127;-56
2021/07/23 03:02:13;;;;;;;9.23;6.30;;;;;;;16.26;66.67;101907.06;5072712;28;20048;-56
2021/07/23 03:04:43;;;;;;;9.75;6.28;;;;;;;16.26;66.80;101907.06;5053975;28;20040;-53
2021/07/23 03:07:12;;;;;;;8.70;5.95;;;;;;;16.30;66.59;101907.31;5054783;28;20044;-54
2021/07/23 03:09:41;;;;;;;9.10;6.43;;;;;;;16.27;66.42;101907.88;5054862;28;20414;-52
2021/07/23 03:12:09;;;;;;;11.57;6.38;;;;;;;16.27;66.74;101911.47;5072099;28;20063;-57
2021/07/23 03:14:43;;;;;;;8.82;5.82;;;;;;;16.31;66.39;101908.97;5054504;28;20056;-53
2021/07/23 03:17:18;;;;;;;9.88;6.18;;;;;;;16.35;66.06;101904.53;5054588;28;20033;-56
2021/07/23 03:19:48;;;;;;;8.43;5.93;;;;;;;16.35;65.62;101904.53;5072197;28;20113;-56
2021/07/23 03:22:18;;;;;;;9.50;5.63;;;;;;;16.30;66.38;101908.13;5054040;28;20102;-52
2021/07/23 03:24:50;;;;;;;8.68;5.80;;;;;;;16.23;66.44;101904.03;5054654;28;20131;-56
2021/07/23 03:27:36;;;;;;;9.75;6.38;;;;;;;16.22;66.41;101900.47;5058723;28;20056;-56
2021/07/23 03:30:12;;;;;;;13.77;6.30;;;;;;;16.09;66.37;101890.91;5072523;28;20044;-52
2021/07/23 03:32:40;;;;;;;9.60;5.88;;;;;;;16.03;67.03;101888.44;5032753;28;20449;-56
2021/07/23 03:35:08;;;;;;;10.35;6.30;;;;;;;15.99;66.81;101885.41;5071987;28;20032;-56
2021/07/23 03:37:44;;;;;;;10.15;6.85;;;;;;;15.98;67.18;101890.09;5053893;28;20106;-56
2021/07/23 03:40:19;;;;;;;10.05;6.10;;;;;;;16.03;67.20;101891.19;5054316;28;20395;-56
2021/07/23 03:42:48;;;;;;;10.18;6.20;;;;;;;15.89;67.58;101885.44;5037326;28;20136;-56
2021/07/23 03:45:21;;;;;;;10.25;6.32;;;;;;;15.92;67.39;101896.72;5054221;28;20040;-54
2021/07/23 03:48:02;;;;;;;11.02;6.03;;;;;;;16.05;67.06;101881.56;5053791;28;20125;-51
2021/07/23 03:50:34;;;;;;;12.68;6.47;;;;;;;16.11;66.53;101879.59;5053756;28;20040;-53
2021/07/23 03:53:02;;;;;;;9.25;6.20;;;;;;;16.09;66.61;101885.41;5053970;28;20055;-53
2021/07/23 03:55:45;;;;;;;10.60;6.20;;;;;;;16.09;66.74;101879.91;5072131;28;20044;-54
2021/07/23 03:58:27;;;;;;;11.05;6.35;;;;;;;16.10;66.90;101881.53;5039308;28;20060;-54
2021/07/23 04:00:55;;;;;;;11.00;6.47;;;;;;;16.09;66.66;101885.41;5053862;28;20050;-53
2021/07/23 04:03:22;;;;;;;9.88;6.13;;;;;;;16.04;66.81;101879.06;5071484;28;20491;-56
2021/07/23 04:05:54;;;;;;;10.25;6.55;;;;;;;16.07;66.97;101882.09;5053772;28;20051;-55
2021/07/23 04:08:22;;;;;;;10.63;6.63;;;;;;;16.09;66.54;101885.41;5071569;28;20503;-52
2021/07/23 04:10:51;;;;;;;9.48;6.63;;;;;;;16.05;66.66;101884.31;5053794;28;20102;-55
2021/07/23 04:13:19;;;;;;;9.75;6.32;;;;;;;16.02;66.85;101884.88;5053789;28;20069;-56
2021/07/23 04:15:47;;;;;;;9.52;6.32;;;;;;;16.02;66.99;101889.53;5071596;28;20087;-56
2021/07/23 04:18:16;;;;;;;9.68;6.10;;;;;;;15.94;67.06;101882.66;5071469;28;20051;-57
2021/07/23 04:21:05;;;;;;;9.77;6.20;;;;;;;15.83;67.28;101881.06;5053681;28;20455;-53
2021/07/23 04:23:36;;;;;;;11.00;6.40;;;;;;;15.81;67.58;101886.81;5071557;28;20059;-56
2021/07/23 04:26:04;;;;;;;10.93;6.20;;;;;;;15.78;67.53;101881.88;5053384;28;20509;-52
2021/07/23 04:28:35;;;;;;;12.60;7.22;;;;;;;15.83;67.55;101881.06;5071711;28;20072;-56
2021/07/23 04:31:03;;;;;;;11.98;6.35;;;;;;;15.89;67.19;101874.44;5071562;28;20044;-53
2021/07/23 04:33:57;;;;;;;10.35;6.20;;;;;;;15.98;67.02;101873.59;5060154;28;20136;-55
2021/07/23 04:36:32;;;;;;;9.63;6.70;;;;;;;16.03;66.61;101875.50;5071212;28;20398;-56
2021/07/23 04:39:05;;;;;;;13.07;6.70;;;;;;;16.00;66.98;101881.56;5056557;28;20135;-53
2021/07/23 04:41:35;;;;;;;12.80;6.72;;;;;;;15.95;66.80;101870.59;5075282;28;20063;-54
2021/07/23 04:44:04;;;;;;;11.82;6.30;;;;;;;15.95;67.04;101871.41;5075144;28;20055;-53
2021/07/23 04:46:34;;;;;;;9.82;6.78;;;;;;;15.95;67.17;101867.84;5056281;28;20565;-55
2021/07/23 04:49:02;;;;;;;10.80;6.00;;;;;;;15.96;66.98;101873.03;5074986;28;20119;-53
2021/07/23 04:51:34;;;;;;;10.55;6.50;;;;;;;15.91;66.95;101873.06;5057212;28;20065;-55
2021/07/23 04:54:20;;;;;;;10.15;6.43;;;;;;;15.84;67.24;101882.69;5074841;28;20051;-56
2021/07/23 04:57:12;;;;;;;10.32;6.00;;;;;;;15.80;67.98;101884.34;5075124;28;20060;-53
2021/07/23 04:59:40;;;;;;;11.52;5.80;;;;;;;15.88;67.72;101884.63;5056676;28;20052;-56
2021/07/23 05:02:09;;;;;;;12.75;6.68;;;;;;;15.95;67.66;101884.34;5074885;28;20039;-56
2021/07/23 05:04:37;;;;;;;12.18;5.47;;;;;;;15.87;67.57;101879.38;5074971;28;20165;-57
2021/07/23 05:07:04;;;;;;;19.42;7.60;;;;;;;15.94;67.50;101878.00;5056862;28;20391;-60
2021/07/23 05:09:32;;;;;;;21.73;7.00;;;;;;;16.05;67.25;101875.25;5061657;28;20079;-61
2021/07/23 05:12:03;;;;;;;13.85;5.80;;;;;;;16.08;67.62;101878.22;5055100;28;20047;-61
2021/07/23 05:14:31;;;;;;;16.25;5.88;;;;;;;16.12;67.18;101879.34;5074303;28;20045;-61
2021/07/23 05:16:59;;;;;;;9.13;5.07;;;;;;;16.22;67.27;101872.97;5056394;28;20075;-62
2021/07/23 05:19:27;;;;;;;10.43;5.82;;;;;;;16.32;67.23;101883.13;5074155;28;20083;-63
2021/07/23 05:21:55;;;;;;;10.30;5.35;;;;;;;16.36;66.87;101881.47;5074371;28;20055;-62
2021/07/23 05:24:22;;;;;;;9.27;5.53;;;;;;;16.38;66.94;101876.50;5074049;28;20048;-63
2021/07/23 05:26:50;;;;;;;10.95;5.57;;;;;;;16.39;66.71;101870.69;5073906;28;20082;-62
2021/07/23 05:29:17;;;;;;;9.60;5.53;;;;;;;16.33;67.12;101868.25;5074298;28;20111;-62
2021/07/23 05:31:45;;;;;;;10.60;6.20;;;;;;;16.30;67.37;101874.31;5074259;28;20032;-61
2021/07/23 05:34:13;;;;;;;9.20;6.07;;;;;;;16.31;67.14;101876.78;5074124;28;20059;-61
2021/07/23 05:36:40;;;;;;;9.88;6.13;;;;;;;16.26;67.30;101873.22;5074041;28;20410;-61
2021/07/23 05:39:08;;;;;;;17.83;8.02;;;;;;;16.19;68.19;101868.84;5074194;28;20150;-63
2021/07/23 05:41:36;;;;;;;10.63;6.68;;;;;;;16.24;67.78;101869.97;5074163;28;20495;-62
2021/07/23 05:44:04;;;;;;;9.23;5.93;;;;;;;16.24;67.96;101875.47;5074129;28;20095;-62
2021/07/23 05:46:35;;;;;;;10.55;6.15;;;;;;;16.32;67.81;101869.38;5073444;28;20059;-62
2021/07/23 05:49:04;;;;;;;10.20;6.25;;;;;;;16.33;67.74;101873.75;5073981;28;20048;-59
2021/07/23 05:51:32;;;;;;;8.73;5.95;;;;;;;16.38;67.85;101871.00;5073940;28;20040;-57
2021/07/23 05:54:00;;;;;;;10.57;6.10;;;;;;;16.40;67.80;101868.78;5055829;28;20050;-59
2021/07/23 05:56:27;;;;;;;10.18;6.78;;;;;;;16.37;67.71;101869.34;5073919;28;20048;-61
2021/07/23 05:58:55;;;;;;;10.60;6.25;;;;;;;16.33;68.21;101869.09;5073663;28;20044;-59
2021/07/23 06:01:22;;;;;;;12.77;6.10;;;;;;;16.41;67.86;101867.69;5073650;28;20572;-59
2021/07/23 06:03:50;;;;;;;15.98;6.38;;;;;;;16.44;68.29;101861.59;5055257;28;20131;-60
2021/07/23 06:06:18;;;;;;;14.32;6.75;;;;;;;16.36;68.56;101870.47;5076382;28;20097;-64
2021/07/23 06:09:01;;;;;;;11.63;6.85;;;;;;;16.31;68.30;101860.28;5086515;28;20040;-63
2021/07/23 06:11:29;;;;;;;10.57;6.07;;;;;;;16.31;68.72;101865.78;5087346;28;20040;-60
2021/07/23 06:13:56;;;;;;;12.15;6.55;;;;;;;16.38;68.34;101865.50;5073209;28;20479;-60
2021/07/23 06:16:24;;;;;;;10.45;5.93;;;;;;;16.45;68.65;101866.03;5073626;28;20062;-58
2021/07/23 06:18:51;;;;;;;11.88;6.20;;;;;;;16.54;68.46;101869.81;5077110;28;20036;-60
2021/07/23 06:21:20;;;;;;;11.98;7.38;;;;;;;16.60;68.69;101867.88;5075642;28;20041;-60
2021/07/23 06:23:47;;;;;;;13.38;6.93;;;;;;;16.66;68.31;101860.41;5073747;28;20086;-61
2021/07/23 06:26:15;;;;;;;16.33;7.15;;;;;;;16.68;68.27;101866.44;5072795;28;20055;-59
2021/07/23 06:28:42;;;;;;;10.38;6.25;;;;;;;16.74;67.80;101868.03;5072748;28;20049;-61
2021/07/23 06:31:14;;;;;;;9.07;5.82;;;;;;;16.78;67.39;101860.88;5073038;28;20044;-61
2021/07/23 06:33:42;;;;;;;11.70;6.63;;;;;;;16.82;67.11;101864.75;5071814;28;20702;-63
2021/07/23 06:36:09;;;;;;;11.30;6.32;;;;;;;16.80;67.43;101862.28;5069280;28;20059;-62
2021/07/23 06:38:37;;;;;;;12.10;6.32;;;;;;;16.83;66.88;101872.69;5072627;28;20051;-58
2021/07/23 06:41:08;;;;;;;14.82;6.25;;;;;;;16.89;66.97;101861.69;5072441;28;20041;-58
2021/07/23 06:43:35;;;;;;;9.10;5.32;;;;;;;16.92;66.69;101863.84;5054563;28;20509;-59
2021/07/23 06:46:04;;;;;;;15.63;6.38;;;;;;;16.94;67.08;101867.16;5071977;28;20044;-58
2021/07/23 06:48:32;;;;;;;19.38;9.73;;;;;;;16.97;67.42;101867.38;5064076;28;20045;-60
2021/07/23 06:51:02;;;;;;;13.93;7.80;;;;;;;17.01;66.82;101868.47;5072558;28;20036;-60
2021/07/23 06:53:29;;;;;;;10.65;6.32;;;;;;;17.08;65.93;101870.06;5072419;28;20041;-62
2021/07/23 06:55:57;;;;;;;10.75;5.40;;;;;;;17.09;65.72;101863.47;5072107;28;20053;-62
2021/07/23 06:58:24;;;;;;;12.93;7.28;;;;;;;17.11;65.90;101866.75;5072260;28;20040;-63
2021/07/23 07:00:52;;;;;;;11.25;5.78;;;;;;;17.16;65.43;101869.47;5053798;28;20051;-62
2021/07/23 07:03:20;;;;;;;15.65;6.65;;;;;;;17.19;65.68;101866.94;5071844;28;20411;-59
2021/07/23 07:05:50;;;;;;;11.05;5.93;;;;;;;17.20;64.95;101876.06;5071770;28;20041;-60
2021/07/23 07:08:18;;;;;;;12.77;7.15;;;;;;;17.21;65.47;101877.69;5071920;28;20044;-60
2021/07/23 07:10:46;;;;;;;9.52;5.82;;;;;;;17.24;64.97;101872.44;5071954;28;20047;-62
2021/07/23 07:13:13;;;;;;;10.27;5.53;;;;;;;17.25;64.21;101867.75;5071597;28;20036;-61
2021/07/23 07:15:41;;;;;;;10.07;5.50;;;;;;;17.27;64.31;101876.56;5063788;28;20410;-63
2021/07/23 07:18:08;;;;;;;11.13;5.30;;;;;;;17.31;64.25;101871.28;5072128;28;20036;-62
2021/07/23 07:20:36;;;;;;;10.07;5.93;;;;;;;17.33;63.69;101874.56;5071688;28;20071;-64
2021/07/23 07:23:03;;;;;;;8.18;4.70;;;;;;;17.29;63.67;101877.06;5071769;28;20040;-64
2021/07/23 07:25:31;;;;;;;8.43;5.10;;;;;;;17.32;63.51;101882.03;5053510;28;20057;-60
2021/07/23 07:28:00;;;;;;;6.28;4.40;;;;;;;17.37;63.08;101875.66;5071393;28;20057;-61
2021/07/23 07:30:28;;;;;;;7.68;4.82;;;;;;;17.38;62.93;101880.03;5054544;28;20146;-56
2021/07/23 07:32:56;;;;;;;7.13;4.43;;;;;;;17.40;62.97;101875.88;5071668;28;20041;-61
2021/07/23 07:35:24;;;;;;;8.98;4.90;;;;;;;17.43;62.91;101868.97;5066299;28;20055;-59
2021/07/23 07:37:51;;;;;;;8.80;4.70;;;;;;;17.46;63.16;101868.38;5071728;28;20056;-61
2021/07/23 07:40:19;;;;;;;7.30;4.22;;;;;;;17.50;63.32;101874.16;5071501;28;20028;-61
2021/07/23 07:42:47;;;;;;;8.20;4.53;;;;;;;17.51;63.11;101875.78;5071657;28;20040;-62
2021/07/23 07:45:14;;;;;;;11.38;4.38;;;;;;;17.53;63.51;101873.56;5071476;28;20124;-62
2021/07/23 07:47:42;;;;;;;9.30;5.13;;;;;;;17.57;63.32;101869.13;5071835;28;20044;-61
2021/07/23 07:50:10;;;;;;;7.95;5.22;;;;;;;17.59;63.34;101864.97;5071835;28;20517;-61
2021/07/23 07:52:37;;;;;;;8.77;4.90;;;;;;;17.64;63.31;101869.63;5071721;28;20119;-60
2021/07/23 07:55:05;;;;;;;9.43;4.90;;;;;;;17.66;63.24;101861.88;5070666;28;20445;-56
2021/07/23 07:57:33;;;;;;;8.52;4.45;;;;;;;17.72;63.29;101870.91;5071811;28;20056;-61
2021/07/23 08:00:00;;;;;;;11.00;4.97;;;;;;;17.72;63.34;101868.97;5071556;28;20495;-57
2021/07/23 08:02:28;;;;;;;8.23;4.75;;;;;;;17.77;62.68;101868.09;5071526;28;20036;-61
2021/07/23 08:04:56;;;;;;;8.50;4.97;;;;;;;17.81;63.25;101864.50;5071193;28;20040;-61
2021/07/23 08:07:29;;;;;;;9.63;4.65;;;;;;;17.86;62.44;101861.69;5071763;28;20048;-59
2021/07/23 08:10:03;;;;;;;12.32;5.43;;;;;;;17.86;62.07;101864.44;5071041;28;20053;-61
2021/07/23 08:12:31;;;;;;;9.93;5.20;;;;;;;17.87;62.20;101849.56;5072083;28;20055;-61
2021/07/23 08:14:59;;;;;;;7.65;5.07;;;;;;;17.87;62.39;101863.34;5074924;28;20050;-61
2021/07/23 08:17:28;;;;;;;8.57;5.00;;;;;;;17.91;62.05;101857.25;5057987;28;20065;-60
2021/07/23 08:19:57;;;;;;;9.85;4.95;;;;;;;17.90;62.25;101850.91;5058105;28;20154;-60
2021/07/23 08:22:25;;;;;;;9.00;4.95;;;;;;;17.93;62.09;101846.75;5075193;28;20075;-60
2021/07/23 08:24:52;;;;;;;7.75;4.35;;;;;;;17.98;62.24;101841.19;5074655;28;20478;-60
2021/07/23 08:27:21;;;;;;;13.35;5.65;;;;;;;18.02;62.21;101850.50;5075086;28;20448;-60
2021/07/23 08:29:49;;;;;;;9.43;4.68;;;;;;;18.04;61.94;101843.59;5057347;28;20048;-59
2021/07/23 08:32:17;;;;;;;14.55;5.13;;;;;;;18.11;61.96;101840.44;5075034;28;20040;-61
2021/07/23 08:34:45;;;;;;;15.52;4.72;;;;;;;18.21;61.52;101842.31;5074502;28;20041;-61
2021/07/23 08:37:13;;;;;;;11.43;5.03;;;;;;;18.23;60.57;101849.16;5074941;28;20041;-60
2021/07/23 08:39:42;;;;;;;11.35;5.53;;;;;;;18.25;60.36;101843.31;5074913;28;20032;-61
2021/07/23 08:42:28;;;;;;;9.18;4.30;;;;;;;18.24;60.55;101845.28;5075323;28;20391;-59
2021/07/23 08:44:57;;;;;;;13.38;5.30;;;;;;;18.17;60.42;101844.81;5074806;28;20055;-61
2021/07/23 08:47:25;;;;;;;13.43;6.57;;;;;;;18.15;60.33;101840.69;5074879;28;20052;-57
2021/07/23 08:49:54;;;;;;;10.73;5.25;;;;;;;18.13;60.27;101841.00;5057110;28;20495;-60
2021/07/23 08:52:40;;;;;;;10.48;5.70;;;;;;;18.19;60.23;101839.00;5074993;28;20045;-60
2021/07/23 08:55:09;;;;;;;10.75;4.97;;;;;;;18.28;59.22;101840.81;5074516;28;20048;-58
2021/07/23 08:57:37;;;;;;;12.52;5.63;;;;;;;18.36;60.08;101835.75;5075018;28;20056;-60
2021/07/23 09:00:06;;;;;;;9.85;5.03;;;;;;;18.42;59.54;101829.03;5074599;28;20044;-59
2021/07/23 09:02:53;;;;;;;10.35;6.32;;;;;;;18.50;59.69;101823.69;5057157;28;20407;-61
2021/07/23 09:05:25;;;;;;;8.48;5.25;;;;;;;18.57;58.99;101820.56;5074124;28;20040;-61
2021/07/23 09:07:52;;;;;;;8.32;5.03;;;;;;;18.62;59.52;101814.16;5074218;28;20048;-60
2021/07/23 09:10:30;;;;;;;10.15;5.82;;;;;;;18.64;59.69;101815.50;5074520;28;20040;-60
2021/07/23 09:13:01;;;;;;;11.25;5.60;;;;;;;18.63;58.77;101819.38;5056479;28;20135;-57
2021/07/23 09:15:40;;;;;;;12.95;5.18;;;;;;;18.65;59.12;101811.59;5074125;28;20128;-60
2021/07/23 09:18:24;;;;;;;9.73;5.45;;;;;;;18.70;59.52;101807.94;5074414;28;20068;-60
2021/07/23 09:20:56;;;;;;;10.05;5.65;;;;;;;18.75;58.64;101810.63;5074153;28;20065;-60
2021/07/23 09:23:31;;;;;;;7.78;4.32;;;;;;;18.80;58.99;101801.47;5073337;28;20590;-60
2021/07/23 09:26:15;;;;;;;10.68;5.05;;;;;;;18.85;57.58;101804.97;5060990;28;20052;-60
2021/07/23 09:28:47;;;;;;;37.28;24.83;;;;;;;18.89;57.44;101792.22;5073739;28;20063;-54
2021/07/23 09:31:28;;;;;;;12.77;6.70;;;;;;;18.93;57.44;101793.28;5074225;28;20041;-58
2021/07/23 09:34:00;;;;;;;9.35;5.40;;;;;;;18.95;56.89;101792.94;5073342;28;20036;-59
2021/07/23 09:36:28;;;;;;;9.43;5.15;;;;;;;19.02;57.46;101781.53;5073548;28;20068;-59
2021/07/23 09:39:11;;;;;;;7.72;5.03;;;;;;;19.02;57.77;101781.53;5073985;28;20045;-64
2021/07/23 09:41:38;;;;;;;8.00;4.95;;;;;;;19.06;57.94;101772.34;5042938;28;20434;-63
2021/07/23 09:44:10;;;;;;;10.15;5.80;;;;;;;19.07;57.85;101782.28;5055722;28;20115;-61
2021/07/23 09:46:45;;;;;;;15.95;5.30;;;;;;;19.11;58.03;101771.44;5073748;28;20055;-63
2021/07/23 09:49:27;;;;;;;10.23;5.38;;;;;;;19.14;57.88;101774.38;5073836;28;20048;-62
2021/07/23 09:51:59;;;;;;;20.17;10.32;;;;;;;19.21;57.60;101762.13;5055601;28;20048;-60
2021/07/23 09:54:27;;;;;;;13.68;5.97;;;;;;;19.28;56.32;101773.63;5073683;28;20059;-63
2021/07/23 09:56:54;;;;;;;13.40;5.88;;;;;;;19.30;55.99;101765.84;5073348;28;20045;-62
2021/07/23 09:59:49;;;;;;;13.55;6.47;;;;;;;19.31;56.49;101767.47;5073953;28;20044;-62
2021/07/23 10:02:20;;;;;;;29.77;12.95;;;;;;;19.34;56.35;101767.69;5056085;28;20076;-63
2021/07/23 10:05:07;;;;;;;61.25;25.02;;;;;;;19.40;56.61;101764.84;5072639;28;20045;-63
2021/07/23 10:07:45;;;;;;;121.55;45.78;;;;;;;19.47;57.04;101752.25;5038832;28;20438;-63
2021/07/23 10:10:13;;;;;;;73.45;30.83;;;;;;;19.55;54.74;101764.53;5039291;28;20052;-60
2021/07/23 10:12:43;;;;;;;55.58;24.60;;;;;;;19.54;55.85;101760.97;5055927;28;20072;-61
2021/07/23 10:15:14;;;;;;;71.95;29.40;;;;;;;19.57;55.93;101746.53;5072722;28;20398;-63
2021/07/23 10:17:42;;;;;;;30.98;14.48;;;;;;;19.66;55.51;101754.13;5073279;28;20139;-62
2021/07/23 10:20:10;;;;;;;38.40;15.52;;;;;;;19.68;55.25;101754.66;5072774;28;20045;-60
2021/07/23 10:22:39;;;;;;;22.20;9.63;;;;;;;19.69;54.93;101753.53;5055358;28;20047;-55
2021/07/23 10:25:07;;;;;;;12.18;6.28;;;;;;;19.66;54.18;101756.88;5072442;28;20048;-61
2021/07/23 10:27:35;;;;;;;12.05;6.22;;;;;;;19.62;55.31;101748.38;5041309;28;20060;-61
2021/07/23 10:30:02;;;;;;;9.77;5.25;;;;;;;19.62;55.23;101755.84;5073324;28;20052;-63
2021/07/23 10:32:31;;;;;;;11.10;6.43;;;;;;;19.64;55.85;101751.66;5072993;28;20052;-57
2021/07/23 10:35:15;;;;;;;11.25;6.45;;;;;;;19.53;56.24;101748.28;5077327;28;20517;-56
2021/07/23 10:37:43;;;;;;;10.50;6.47;;;;;;;19.49;56.52;101744.47;5063997;28;20078;-60
2021/07/23 10:40:11;;;;;;;13.60;7.05;;;;;;;19.42;56.32;101752.34;5072290;28;20045;-59
2021/07/23 10:42:43;;;;;;;14.85;8.05;;;;;;;19.42;56.48;101746.81;5072649;28;20041;-58
2021/07/23 10:45:14;;;;;;;12.43;6.72;;;;;;;19.47;56.06;101737.63;5054185;28;20415;-59
2021/07/23 10:47:46;;;;;;;10.93;6.75;;;;;;;19.47;56.26;101743.16;5072653;28;20102;-58
2021/07/23 10:50:22;;;;;;;10.43;6.53;;;;;;;19.49;55.90;101738.13;5066369;28;20049;-55
2021/07/23 10:52:50;;;;;;;;;;;;;;;19.57;55.32;101732.69;5073015;28;20048;-58
2021/07/23 10:55:21;;;;;;;10.48;6.28;;;;;;;19.67;54.34;101728.09;5072547;28;19951;-56
2021/07/23 10:58:11;;;;;;;11.57;6.03;;;;;;;19.73;55.70;101724.97;5071943;28;20055;-59
2021/07/23 11:00:46;;;;;;;9.85;6.13;;;;;;;19.82;54.80;101716.78;5065812;28;20051;-57
2021/07/23 11:03:32;;;;;;;11.70;6.28;;;;;;;19.90;54.32;101716.03;5071196;28;20411;-58
2021/07/23 11:06:00;;;;;;;11.48;6.03;;;;;;;19.95;53.83;101710.38;5071948;28;20127;-59
2021/07/23 11:08:28;;;;;;;16.70;6.75;;;;;;;19.97;54.09;101702.59;5053433;28;20060;-56
2021/07/23 11:10:55;;;;;;;11.70;6.35;;;;;;;19.99;54.97;101699.53;5054331;28;20052;-57
2021/07/23 11:13:23;;;;;;;13.60;6.35;;;;;;;19.93;54.42;101701.56;5061772;28;20032;-58
2021/07/23 11:16:09;;;;;;;9.90;6.00;;;;;;;19.97;54.55;101691.53;5080990;28;20040;-57
2021/07/23 11:18:36;;;;;;;9.98;6.25;;;;;;;20.05;53.57;101694.69;5053549;28;20455;-55
2021/07/23 11:21:05;;;;;;;15.82;5.70;;;;;;;20.13;53.18;101696.72;5070787;28;20044;-57
2021/07/23 11:23:33;;;;;;;9.35;4.90;;;;;;;20.18;53.14;101683.59;5071053;28;20052;-60
2021/07/23 11:26:23;;;;;;;9.60;5.85;;;;;;;20.20;53.96;101675.81;5071821;28;20044;-55
2021/07/23 11:28:53;;;;;;;11.25;6.35;;;;;;;20.26;53.84;101681.22;5054021;28;20423;-60
2021/07/23 11:31:33;;;;;;;15.50;6.70;;;;;;;20.28;53.96;101673.44;5071950;28;20040;-60
2021/07/23 11:34:23;;;;;;;11.32;7.25;;;;;;;20.19;54.34;101674.16;5068821;28;20040;-58
2021/07/23 11:36:51;;;;;;;9.73;6.38;;;;;;;20.15;54.79;101673.13;5060436;28;20051;-59